WetterOnline ( https://www.wetteronline.de )

Wetter aktuell Rothaargebirge

Aktuelles Wetter: Kahler Asten (841m)

6-stündlich | Neueste Meldungen
Ortszeit Temperatur Wetter
Mi, 20.11. 7:00 -1.9° C Nebel
Mi, 20.11. 1:00 -1.4° C Nebel
Di, 19.11. 19:00 -0.7° C Schneegriesel
Di, 19.11. 13:00 -0.4° C bewölkt
Di, 19.11. 7:00 -0.6° C Nebel
Di, 19.11. 1:00 -1.0° C Schneefall
Mo, 18.11. 19:00 -0.3° C Schneefall
Mo, 18.11. 13:00 0.6° C Nebel
Ortszeit Temperatur Wetter
Mi, 20.11. 7:00 -1.9° C Nebel
Mi, 20.11. 6:50 -1.9° C Nebel
Mi, 20.11. 6:40 -2.0° C Nebel
Mi, 20.11. 6:30 -1.9° C Nebel
Mi, 20.11. 6:20 -1.9° C Nebel
Mi, 20.11. 6:10 -1.8° C Nebel
Mi, 20.11. 6:00 -1.9° C wolkenlos
Mi, 20.11. 5:30 -2.0° C wolkenlos
Mi, 20.11. 5:00 -2.0° C Nebel
Mi, 20.11. 4:30 -1.7° C Nebel
Mi, 20.11. 4:00 -1.6° C Nebel
Ortszeit Relative Feuchte Sichtweite
Mi, 20.11. 7:00 96% 100 m
Mi, 20.11. 1:00 96% 0.8 km
Di, 19.11. 19:00 96% 0.2 km
Di, 19.11. 13:00 96% 0.4 km
Di, 19.11. 7:00 97% 0.2 km
Di, 19.11. 1:00 97% 100 m
Mo, 18.11. 19:00 97% 100 m
Mo, 18.11. 13:00 98% <100 m
Ortszeit Relative Feuchte Sichtweite
Mi, 20.11. 7:00 96% 100 m
Mi, 20.11. 6:50 96% -
Mi, 20.11. 6:40 96% -
Mi, 20.11. 6:30 96% 100 m
Mi, 20.11. 6:20 96% -
Mi, 20.11. 6:10 96% -
Mi, 20.11. 6:00 95% 7 km
Mi, 20.11. 5:30 95% 7 km
Mi, 20.11. 5:00 96% 100 m
Mi, 20.11. 4:30 96% 100 m
Mi, 20.11. 4:00 96% 0.3 km
Ortszeit Niederschlagsmenge Niederschlagsart
Mi, 20.11. 7:00 0.1 l/m2 in 12 Std. -
Mi, 20.11. 1:00 0.1 l/m2 in 6 Std. Schnee, Sprühregen
Di, 19.11. 19:00 0.6 l/m2 in 12 Std. Schnee, Regen
Di, 19.11. 13:00 0.1 l/m2 in 6 Std. Schnee, Sprühregen
Di, 19.11. 7:00 12 l/m2 in 12 Std. Schnee, Regen
Di, 19.11. 1:00 12 l/m2 in 6 Std. Schnee
Mo, 18.11. 19:00 2 l/m2 in 12 Std. Schnee, Regen
Mo, 18.11. 13:00 0.1 l/m2 in 6 Std. Sprühregen
Ortszeit Niederschlagsmenge Niederschlagsart
Mi, 20.11. 7:00 0.0 l/m2 in 1 Std. -
Mi, 20.11. 6:50 keine Meldung -
Mi, 20.11. 6:40 keine Meldung -
Mi, 20.11. 6:30 0.0 l/m2 in 1 Std. -
Mi, 20.11. 6:20 keine Meldung -
Mi, 20.11. 6:10 keine Meldung -
Mi, 20.11. 6:00 0.0 l/m2 in 1 Std. -
Mi, 20.11. 5:30 0.0 l/m2 in 1 Std. -
Mi, 20.11. 5:00 0.0 l/m2 in 1 Std. -
Mi, 20.11. 4:30 0.0 l/m2 in 1 Std. -
Mi, 20.11. 4:00 0.0 l/m2 in 1 Std. -
Ortszeit Stärke Spitze Richtung
km/h Bft. km/h Grad Sektor
Mi, 20.11. 7:00 15 3 22 60° NO
Mi, 20.11. 1:00 13 3 22 340° N
Di, 19.11. 19:00 13 3 35 310° NW
Di, 19.11. 13:00 20 4 46 240° SW
Di, 19.11. 7:00 32 5 50 260° W
Di, 19.11. 1:00 28 4 44 250° W
Mo, 18.11. 19:00 30 5 43 210° SW
Mo, 18.11. 13:00 14 3 25 210° SW
Ortszeit Stärke Spitze Richtung
km/h Bft. km/h Grad Sektor
Mi, 20.11. 7:00 15 3 22 60° NO
Mi, 20.11. 6:50 15 3 - 60° NO
Mi, 20.11. 6:40 14 3 - 50° NO
Mi, 20.11. 6:30 14 3 18 60° NO
Mi, 20.11. 6:20 14 3 - 60° NO
Mi, 20.11. 6:10 15 3 - 50° NO
Mi, 20.11. 6:00 13 3 17 60° NO
Mi, 20.11. 5:30 11 2 17 40° NO
Mi, 20.11. 5:00 13 3 19 20° N
Mi, 20.11. 4:30 11 2 18 360° N
Mi, 20.11. 4:00 17 3 20 10° N
Ortszeit Untergrenze Bedeckung Gattung
total tief tief mittel hoch
Mi, 20.11. 7:00 <30 m 8/8 0/8 - - -
Mi, 20.11. 1:00 <30 m 7/8 0/8 - - -
Di, 19.11. 19:00 <30 m 7/8 0/8 - - -
Di, 19.11. 13:00 30 m 7/8 7/8 - - -
Di, 19.11. 7:00 30 m 7/8 7/8 - - -
Di, 19.11. 1:00 <30 m 8/8 0/8 - - -
Mo, 18.11. 19:00 <30 m 7/8 0/8 - - -
Mo, 18.11. 13:00 <30 m 8/8 0/8 - - -
Ortszeit Bedeckungsgrad in Achtel und Wolkenuntergrenze
Mi, 20.11. 7:00 8(<30m)
Mi, 20.11. 6:50 8(<30m)
Mi, 20.11. 6:40 8(<30m)
Mi, 20.11. 6:30 6(30m)
Mi, 20.11. 6:20 6(30m)
Mi, 20.11. 6:10 4(30m)
Mi, 20.11. 6:00 1(90m)
Mi, 20.11. 5:30 keine Wolken
Mi, 20.11. 5:00 8(<30m)
Mi, 20.11. 4:30 6(<30m)
Mi, 20.11. 4:00 2(30m) 9 9
Ortszeit Stationsdruck (hPa) Tendenz (hPa in 3 Std.)
Mi, 20.11. 7:00 917 - 0,4
Mi, 20.11. 1:00 917 + 0,4
Di, 19.11. 19:00 916 + 1,0
Di, 19.11. 13:00 915 + 0,8
Di, 19.11. 7:00 912 + 1,7
Di, 19.11. 1:00 909 + 1,8
Mo, 18.11. 19:00 906 + 0,4
Mo, 18.11. 13:00 905 0,0
Ortszeit Stationsdruck (hPa) Tendenz (hPa in 3 Std.)
Mi, 20.11. 7:00 917 - 0,4
Mi, 20.11. 6:50 917 keine Meldung
Mi, 20.11. 6:40 917 keine Meldung
Mi, 20.11. 6:30 917 - 0,6
Mi, 20.11. 6:20 917 keine Meldung
Mi, 20.11. 6:10 917 keine Meldung
Mi, 20.11. 6:00 917 - 0,7
Mi, 20.11. 5:30 917 - 0,5
Mi, 20.11. 5:00 917 - 0,4
Mi, 20.11. 4:30 917 - 0,4
Mi, 20.11. 4:00 917 - 0,4
Ortszeit Schneehöhe (cm)
Mi, 20.11. 7:00 8
Mi, 20.11. 1:00 9
Di, 19.11. 19:00 9
Di, 19.11. 13:00 9
Di, 19.11. 7:00 10
Di, 19.11. 1:00 10
Mo, 18.11. 19:00 0
Mo, 18.11. 13:00 0
Ortszeit Schneehöhe (cm)
Mi, 20.11. 7:00 8
Mi, 20.11. 6:50 8
Mi, 20.11. 6:40 8
Mi, 20.11. 6:30 8
Mi, 20.11. 6:20 8
Mi, 20.11. 6:10 8
Mi, 20.11. 6:00 8
Mi, 20.11. 5:30 8
Mi, 20.11. 5:00 8
Mi, 20.11. 4:30 8
Mi, 20.11. 4:00 8
Link zu dieser Seite / Seite empfehlen

Das Wetter in ...